Terminal Aerodrome Forecast
Issued by NWS

Home | Current Version | Previous Version | Text Only | Print | Product List | Glossary On
Versions: 1 2 3 4 5 6 7 8 9 10 11 12 13 14 15 16 17 18 19
000
FTAK31 PAJN 261200 AAA
TAFAKT
TAF AMD
PAKT 261217Z 2612/2712 18005KT 3SM BCFG BKN005
      TEMPO 2612/2614 1/2SM FG VV003
     FM261400 VRB04KT P6SM VCFG SCT005 BKN025
     FM261800 33010KT P6SM SCT020
     FM262200 33010KT P6SM SKC
     FM270300 33006KT P6SM SCT100
     FM270700 VRB06KT 6SM BR SCT010
      AMD LTD TO CLD VIS AND WIND 2612/2615=

USA.gov is the U.S. government's official web portal to all federal, state and local government web resources and services.